sensor_id;sensor_type;location;lat;lon;timestamp;temperature;humidity
8178;DHT22;4130;48.740;9.132;2023-01-10T00:02:26;4.10;99.90
8178;DHT22;4130;48.740;9.132;2023-01-10T00:04:53;4.10;99.90
8178;DHT22;4130;48.740;9.132;2023-01-10T00:07:19;4.10;99.90
8178;DHT22;4130;48.740;9.132;2023-01-10T00:09:46;4.10;99.90
8178;DHT22;4130;48.740;9.132;2023-01-10T00:12:13;4.10;99.90
8178;DHT22;4130;48.740;9.132;2023-01-10T00:14:58;4.10;99.90
8178;DHT22;4130;48.740;9.132;2023-01-10T00:17:25;4.10;99.90
8178;DHT22;4130;48.740;9.132;2023-01-10T00:19:52;4.20;99.90
8178;DHT22;4130;48.740;9.132;2023-01-10T00:22:19;4.10;99.90
8178;DHT22;4130;48.740;9.132;2023-01-10T00:24:49;4.10;99.90
8178;DHT22;4130;48.740;9.132;2023-01-10T00:27:16;4.10;99.90
8178;DHT22;4130;48.740;9.132;2023-01-10T00:29:46;4.10;99.90
8178;DHT22;4130;48.740;9.132;2023-01-10T00:32:14;4.10;99.90
8178;DHT22;4130;48.740;9.132;2023-01-10T00:34:41;4.10;99.90
8178;DHT22;4130;48.740;9.132;2023-01-10T00:37:08;4.10;99.90
8178;DHT22;4130;48.740;9.132;2023-01-10T00:39:34;4.10;99.90
8178;DHT22;4130;48.740;9.132;2023-01-10T00:42:01;4.10;99.90
8178;DHT22;4130;48.740;9.132;2023-01-10T00:44:45;4.10;99.90
8178;DHT22;4130;48.740;9.132;2023-01-10T00:47:12;4.10;99.90
8178;DHT22;4130;48.740;9.132;2023-01-10T00:49:40;4.10;99.90
8178;DHT22;4130;48.740;9.132;2023-01-10T00:52:07;4.10;99.90
8178;DHT22;4130;48.740;9.132;2023-01-10T00:54:34;4.10;99.90
8178;DHT22;4130;48.740;9.132;2023-01-10T00:57:01;4.10;99.90
8178;DHT22;4130;48.740;9.132;2023-01-10T00:59:27;4.10;99.90
8178;DHT22;4130;48.740;9.132;2023-01-10T01:01:54;4.50;99.90
8178;DHT22;4130;48.740;9.132;2023-01-10T01:04:21;4.10;99.90
8178;DHT22;4130;48.740;9.132;2023-01-10T01:06:49;4.10;99.90
8178;DHT22;4130;48.740;9.132;2023-01-10T01:09:16;4.10;99.90
8178;DHT22;4130;48.740;9.132;2023-01-10T01:11:43;4.10;99.90
8178;DHT22;4130;48.740;9.132;2023-01-10T01:14:09;4.10;99.90
8178;DHT22;4130;48.740;9.132;2023-01-10T01:16:36;4.20;99.90
8178;DHT22;4130;48.740;9.132;2023-01-10T01:19:03;4.20;99.90
8178;DHT22;4130;48.740;9.132;2023-01-10T01:21:30;4.20;99.90
8178;DHT22;4130;48.740;9.132;2023-01-10T01:23:58;4.20;99.90
8178;DHT22;4130;48.740;9.132;2023-01-10T01:26:25;4.20;99.90
8178;DHT22;4130;48.740;9.132;2023-01-10T01:28:51;4.20;99.90
8178;DHT22;4130;48.740;9.132;2023-01-10T01:31:18;4.20;99.90
8178;DHT22;4130;48.740;9.132;2023-01-10T01:33:45;4.20;99.90
8178;DHT22;4130;48.740;9.132;2023-01-10T01:36:12;4.20;99.90
8178;DHT22;4130;48.740;9.132;2023-01-10T01:38:40;4.20;99.90
8178;DHT22;4130;48.740;9.132;2023-01-10T01:41:09;4.20;99.90
8178;DHT22;4130;48.740;9.132;2023-01-10T01:44:01;4.20;99.90
8178;DHT22;4130;48.740;9.132;2023-01-10T01:46:29;4.20;99.90
8178;DHT22;4130;48.740;9.132;2023-01-10T01:48:58;4.20;99.90
8178;DHT22;4130;48.740;9.132;2023-01-10T01:51:27;4.20;99.90
8178;DHT22;4130;48.740;9.132;2023-01-10T01:53:57;4.20;99.90
8178;DHT22;4130;48.740;9.132;2023-01-10T01:56:29;4.20;99.90
8178;DHT22;4130;48.740;9.132;2023-01-10T01:59:00;4.20;99.90
8178;DHT22;4130;48.740;9.132;2023-01-10T02:01:28;4.20;99.90
8178;DHT22;4130;48.740;9.132;2023-01-10T02:03:59;4.20;99.90
8178;DHT22;4130;48.740;9.132;2023-01-10T02:06:27;4.20;99.90
8178;DHT22;4130;48.740;9.132;2023-01-10T02:09:01;4.10;99.90
8178;DHT22;4130;48.740;9.132;2023-01-10T02:11:30;4.10;99.90
8178;DHT22;4130;48.740;9.132;2023-01-10T02:13:57;4.10;99.90
8178;DHT22;4130;48.740;9.132;2023-01-10T02:16:24;4.10;99.90
8178;DHT22;4130;48.740;9.132;2023-01-10T02:18:51;4.10;99.90
8178;DHT22;4130;48.740;9.132;2023-01-10T02:21:33;4.10;99.90
8178;DHT22;4130;48.740;9.132;2023-01-10T02:27:13;4.00;99.90
8178;DHT22;4130;48.740;9.132;2023-01-10T02:30:09;4.00;99.90
8178;DHT22;4130;48.740;9.132;2023-01-10T02:32:42;4.00;99.90
8178;DHT22;4130;48.740;9.132;2023-01-10T02:35:20;5.10;99.90
8178;DHT22;4130;48.740;9.132;2023-01-10T02:37:56;4.00;99.90
8178;DHT22;4130;48.740;9.132;2023-01-10T02:40:33;4.00;99.90
8178;DHT22;4130;48.740;9.132;2023-01-10T02:43:05;5.10;99.90
8178;DHT22;4130;48.740;9.132;2023-01-10T02:45:37;3.90;99.90
8178;DHT22;4130;48.740;9.132;2023-01-10T02:48:05;5.40;99.90
8178;DHT22;4130;48.740;9.132;2023-01-10T02:50:55;4.70;99.90
8178;DHT22;4130;48.740;9.132;2023-01-10T02:53:26;3.80;99.90
8178;DHT22;4130;48.740;9.132;2023-01-10T02:58:58;3.70;99.90
8178;DHT22;4130;48.740;9.132;2023-01-10T03:01:31;3.70;99.90
8178;DHT22;4130;48.740;9.132;2023-01-10T03:04:12;3.70;99.90
8178;DHT22;4130;48.740;9.132;2023-01-10T03:06:51;3.70;99.90
8178;DHT22;4130;48.740;9.132;2023-01-10T03:09:23;3.60;99.90
8178;DHT22;4130;48.740;9.132;2023-01-10T03:11:56;3.60;99.90
8178;DHT22;4130;48.740;9.132;2023-01-10T03:14:27;3.50;99.90
8178;DHT22;4130;48.740;9.132;2023-01-10T03:16:59;3.50;99.90
8178;DHT22;4130;48.740;9.132;2023-01-10T03:19:31;3.60;99.90
8178;DHT22;4130;48.740;9.132;2023-01-10T03:22:01;3.60;99.90
8178;DHT22;4130;48.740;9.132;2023-01-10T03:24:31;3.60;99.90
8178;DHT22;4130;48.740;9.132;2023-01-10T03:27:04;3.60;99.90
8178;DHT22;4130;48.740;9.132;2023-01-10T03:29:36;3.60;99.90
8178;DHT22;4130;48.740;9.132;2023-01-10T03:32:09;3.60;99.90
8178;DHT22;4130;48.740;9.132;2023-01-10T03:34:39;3.60;99.90
8178;DHT22;4130;48.740;9.132;2023-01-10T03:37:10;3.60;99.90
8178;DHT22;4130;48.740;9.132;2023-01-10T03:39:43;3.60;99.90
8178;DHT22;4130;48.740;9.132;2023-01-10T03:42:20;3.70;99.90
8178;DHT22;4130;48.740;9.132;2023-01-10T03:44:54;3.70;99.90
8178;DHT22;4130;48.740;9.132;2023-01-10T03:47:26;3.70;99.90
8178;DHT22;4130;48.740;9.132;2023-01-10T03:49:58;3.70;99.90
8178;DHT22;4130;48.740;9.132;2023-01-10T03:52:26;3.70;99.90
8178;DHT22;4130;48.740;9.132;2023-01-10T03:54:54;3.70;99.90
8178;DHT22;4130;48.740;9.132;2023-01-10T03:57:24;3.70;99.90
8178;DHT22;4130;48.740;9.132;2023-01-10T03:59:53;3.70;99.90
8178;DHT22;4130;48.740;9.132;2023-01-10T04:02:23;3.70;99.90
8178;DHT22;4130;48.740;9.132;2023-01-10T04:04:50;3.70;99.90
8178;DHT22;4130;48.740;9.132;2023-01-10T04:07:18;3.70;99.90
8178;DHT22;4130;48.740;9.132;2023-01-10T04:09:45;3.70;99.90
8178;DHT22;4130;48.740;9.132;2023-01-10T04:12:12;3.60;99.90
8178;DHT22;4130;48.740;9.132;2023-01-10T04:14:39;3.60;99.90
8178;DHT22;4130;48.740;9.132;2023-01-10T04:17:06;3.60;99.90
8178;DHT22;4130;48.740;9.132;2023-01-10T04:19:32;3.60;99.90
8178;DHT22;4130;48.740;9.132;2023-01-10T04:21:59;3.50;99.90
8178;DHT22;4130;48.740;9.132;2023-01-10T04:24:27;3.50;99.90
8178;DHT22;4130;48.740;9.132;2023-01-10T04:26:54;3.40;99.90
8178;DHT22;4130;48.740;9.132;2023-01-10T04:29:21;3.40;99.90
8178;DHT22;4130;48.740;9.132;2023-01-10T04:31:48;3.40;99.90
8178;DHT22;4130;48.740;9.132;2023-01-10T04:34:15;3.30;99.90
8178;DHT22;4130;48.740;9.132;2023-01-10T04:36:44;3.30;99.90
8178;DHT22;4130;48.740;9.132;2023-01-10T04:39:11;3.20;99.90
8178;DHT22;4130;48.740;9.132;2023-01-10T04:41:39;3.20;99.90
8178;DHT22;4130;48.740;9.132;2023-01-10T04:44:06;4.00;99.90
8178;DHT22;4130;48.740;9.132;2023-01-10T04:46:33;3.20;99.90
8178;DHT22;4130;48.740;9.132;2023-01-10T04:49:00;3.20;99.90
8178;DHT22;4130;48.740;9.132;2023-01-10T04:51:27;3.20;99.90
8178;DHT22;4130;48.740;9.132;2023-01-10T04:53:54;3.10;99.90
8178;DHT22;4130;48.740;9.132;2023-01-10T04:56:22;3.10;99.90
8178;DHT22;4130;48.740;9.132;2023-01-10T04:58:50;3.20;99.90
8178;DHT22;4130;48.740;9.132;2023-01-10T05:01:18;3.20;99.90
8178;DHT22;4130;48.740;9.132;2023-01-10T05:03:46;3.10;99.90
8178;DHT22;4130;48.740;9.132;2023-01-10T05:06:16;3.00;99.90
8178;DHT22;4130;48.740;9.132;2023-01-10T05:08:43;3.00;99.90
8178;DHT22;4130;48.740;9.132;2023-01-10T05:11:10;2.90;99.90
8178;DHT22;4130;48.740;9.132;2023-01-10T05:13:37;2.90;99.90
8178;DHT22;4130;48.740;9.132;2023-01-10T05:16:06;2.90;99.90
8178;DHT22;4130;48.740;9.132;2023-01-10T05:18:33;2.90;99.90
8178;DHT22;4130;48.740;9.132;2023-01-10T05:21:00;3.00;99.90
8178;DHT22;4130;48.740;9.132;2023-01-10T05:23:27;3.00;99.90
8178;DHT22;4130;48.740;9.132;2023-01-10T05:25:54;3.10;99.90
8178;DHT22;4130;48.740;9.132;2023-01-10T05:28:21;3.10;99.90
8178;DHT22;4130;48.740;9.132;2023-01-10T05:30:59;3.10;99.90
8178;DHT22;4130;48.740;9.132;2023-01-10T05:33:27;3.10;99.90
8178;DHT22;4130;48.740;9.132;2023-01-10T05:35:54;3.20;99.90
8178;DHT22;4130;48.740;9.132;2023-01-10T05:38:20;3.30;99.90
8178;DHT22;4130;48.740;9.132;2023-01-10T05:40:47;4.70;99.90
8178;DHT22;4130;48.740;9.132;2023-01-10T05:43:14;3.40;99.90
8178;DHT22;4130;48.740;9.132;2023-01-10T05:45:41;3.40;99.90
8178;DHT22;4130;48.740;9.132;2023-01-10T05:48:08;3.40;99.90
8178;DHT22;4130;48.740;9.132;2023-01-10T05:50:36;3.50;99.90
8178;DHT22;4130;48.740;9.132;2023-01-10T05:53:03;3.50;99.90
8178;DHT22;4130;48.740;9.132;2023-01-10T05:55:30;3.60;99.90
8178;DHT22;4130;48.740;9.132;2023-01-10T05:57:57;3.60;99.90
8178;DHT22;4130;48.740;9.132;2023-01-10T06:00:24;3.60;99.90
8178;DHT22;4130;48.740;9.132;2023-01-10T06:02:53;3.60;99.90
8178;DHT22;4130;48.740;9.132;2023-01-10T06:05:20;3.60;99.90
8178;DHT22;4130;48.740;9.132;2023-01-10T06:07:48;3.60;99.90
8178;DHT22;4130;48.740;9.132;2023-01-10T06:10:15;4.20;99.90
8178;DHT22;4130;48.740;9.132;2023-01-10T06:12:42;3.50;99.90
8178;DHT22;4130;48.740;9.132;2023-01-10T06:15:10;3.60;99.90
8178;DHT22;4130;48.740;9.132;2023-01-10T06:17:39;3.60;99.90
8178;DHT22;4130;48.740;9.132;2023-01-10T06:20:07;3.60;99.90
8178;DHT22;4130;48.740;9.132;2023-01-10T06:22:34;3.50;99.90
8178;DHT22;4130;48.740;9.132;2023-01-10T06:25:02;3.50;99.90
8178;DHT22;4130;48.740;9.132;2023-01-10T06:27:29;3.60;99.90
8178;DHT22;4130;48.740;9.132;2023-01-10T06:29:56;3.50;99.90
8178;DHT22;4130;48.740;9.132;2023-01-10T06:32:24;3.50;99.90
8178;DHT22;4130;48.740;9.132;2023-01-10T06:34:50;3.50;99.90
8178;DHT22;4130;48.740;9.132;2023-01-10T06:37:17;3.50;99.90
8178;DHT22;4130;48.740;9.132;2023-01-10T06:39:44;3.60;99.90
8178;DHT22;4130;48.740;9.132;2023-01-10T06:42:12;3.60;99.90
8178;DHT22;4130;48.740;9.132;2023-01-10T06:44:39;3.60;99.90
8178;DHT22;4130;48.740;9.132;2023-01-10T06:47:06;3.60;99.90
8178;DHT22;4130;48.740;9.132;2023-01-10T06:49:32;4.90;99.90
8178;DHT22;4130;48.740;9.132;2023-01-10T06:51:59;3.50;99.90
8178;DHT22;4130;48.740;9.132;2023-01-10T06:54:26;3.40;99.90
8178;DHT22;4130;48.740;9.132;2023-01-10T06:56:53;3.30;99.90
8178;DHT22;4130;48.740;9.132;2023-01-10T06:59:21;3.30;99.90
8178;DHT22;4130;48.740;9.132;2023-01-10T07:01:47;3.20;99.90
8178;DHT22;4130;48.740;9.132;2023-01-10T07:04:14;3.30;99.90
8178;DHT22;4130;48.740;9.132;2023-01-10T07:06:41;3.30;99.90
8178;DHT22;4130;48.740;9.132;2023-01-10T07:09:08;3.70;99.90
8178;DHT22;4130;48.740;9.132;2023-01-10T07:11:35;3.40;99.90
8178;DHT22;4130;48.740;9.132;2023-01-10T07:14:02;3.60;99.90
8178;DHT22;4130;48.740;9.132;2023-01-10T07:16:30;3.50;99.90
8178;DHT22;4130;48.740;9.132;2023-01-10T07:18:58;3.50;99.90
8178;DHT22;4130;48.740;9.132;2023-01-10T07:21:25;3.60;99.90
8178;DHT22;4130;48.740;9.132;2023-01-10T07:23:52;3.60;99.90
8178;DHT22;4130;48.740;9.132;2023-01-10T07:26:19;3.60;99.90
8178;DHT22;4130;48.740;9.132;2023-01-10T07:28:48;3.60;99.90
8178;DHT22;4130;48.740;9.132;2023-01-10T07:31:16;3.70;99.90
8178;DHT22;4130;48.740;9.132;2023-01-10T07:33:44;3.70;99.90
8178;DHT22;4130;48.740;9.132;2023-01-10T07:36:12;3.60;99.90
8178;DHT22;4130;48.740;9.132;2023-01-10T07:38:39;3.70;99.90
8178;DHT22;4130;48.740;9.132;2023-01-10T07:41:06;4.70;99.90
8178;DHT22;4130;48.740;9.132;2023-01-10T07:43:33;3.70;99.90
8178;DHT22;4130;48.740;9.132;2023-01-10T07:46:00;3.70;99.90
8178;DHT22;4130;48.740;9.132;2023-01-10T07:48:27;3.70;99.90
8178;DHT22;4130;48.740;9.132;2023-01-10T07:50:56;3.90;99.90
8178;DHT22;4130;48.740;9.132;2023-01-10T07:53:24;3.80;99.90
8178;DHT22;4130;48.740;9.132;2023-01-10T07:55:50;3.90;99.90
8178;DHT22;4130;48.740;9.132;2023-01-10T07:58:17;3.90;99.90
8178;DHT22;4130;48.740;9.132;2023-01-10T08:00:44;3.90;99.90
8178;DHT22;4130;48.740;9.132;2023-01-10T08:03:11;3.90;99.90
8178;DHT22;4130;48.740;9.132;2023-01-10T08:05:38;3.90;99.90
8178;DHT22;4130;48.740;9.132;2023-01-10T08:08:07;3.90;99.90
8178;DHT22;4130;48.740;9.132;2023-01-10T08:10:35;4.00;99.90
8178;DHT22;4130;48.740;9.132;2023-01-10T08:13:03;4.80;99.90
8178;DHT22;4130;48.740;9.132;2023-01-10T08:15:30;4.10;99.90
8178;DHT22;4130;48.740;9.132;2023-01-10T08:17:58;4.10;99.90
8178;DHT22;4130;48.740;9.132;2023-01-10T08:20:25;4.20;99.90
8178;DHT22;4130;48.740;9.132;2023-01-10T08:22:52;4.20;99.90
8178;DHT22;4130;48.740;9.132;2023-01-10T08:25:20;4.20;99.90
8178;DHT22;4130;48.740;9.132;2023-01-10T08:27:47;4.30;99.90
8178;DHT22;4130;48.740;9.132;2023-01-10T08:30:14;4.30;99.90
8178;DHT22;4130;48.740;9.132;2023-01-10T08:32:41;4.30;99.90
8178;DHT22;4130;48.740;9.132;2023-01-10T08:35:08;4.30;99.90
8178;DHT22;4130;48.740;9.132;2023-01-10T08:37:35;4.30;99.90
8178;DHT22;4130;48.740;9.132;2023-01-10T08:40:03;4.30;99.90
8178;DHT22;4130;48.740;9.132;2023-01-10T08:42:31;4.30;99.90
8178;DHT22;4130;48.740;9.132;2023-01-10T08:44:58;4.30;99.90
8178;DHT22;4130;48.740;9.132;2023-01-10T08:47:25;4.40;99.90
8178;DHT22;4130;48.740;9.132;2023-01-10T08:49:52;4.40;99.90
8178;DHT22;4130;48.740;9.132;2023-01-10T08:52:19;4.40;99.90
8178;DHT22;4130;48.740;9.132;2023-01-10T08:54:46;4.40;99.90
8178;DHT22;4130;48.740;9.132;2023-01-10T08:57:14;4.40;99.90
8178;DHT22;4130;48.740;9.132;2023-01-10T08:59:42;4.50;99.90
8178;DHT22;4130;48.740;9.132;2023-01-10T09:02:12;4.50;99.90
8178;DHT22;4130;48.740;9.132;2023-01-10T09:04:39;4.50;99.90
8178;DHT22;4130;48.740;9.132;2023-01-10T09:07:06;4.60;99.90
8178;DHT22;4130;48.740;9.132;2023-01-10T09:09:32;4.50;99.90
8178;DHT22;4130;48.740;9.132;2023-01-10T09:11:59;4.50;99.90
8178;DHT22;4130;48.740;9.132;2023-01-10T09:14:26;4.60;99.90
8178;DHT22;4130;48.740;9.132;2023-01-10T09:16:54;4.60;99.90
8178;DHT22;4130;48.740;9.132;2023-01-10T09:19:21;4.60;99.90
8178;DHT22;4130;48.740;9.132;2023-01-10T09:21:47;5.50;99.90
8178;DHT22;4130;48.740;9.132;2023-01-10T09:24:14;4.70;99.90
8178;DHT22;4130;48.740;9.132;2023-01-10T09:26:41;4.70;99.90
8178;DHT22;4130;48.740;9.132;2023-01-10T09:29:09;4.70;99.90
8178;DHT22;4130;48.740;9.132;2023-01-10T09:31:36;4.70;99.90
8178;DHT22;4130;48.740;9.132;2023-01-10T09:34:04;4.70;99.90
8178;DHT22;4130;48.740;9.132;2023-01-10T09:36:31;4.70;99.90
8178;DHT22;4130;48.740;9.132;2023-01-10T09:38:58;4.70;99.90
8178;DHT22;4130;48.740;9.132;2023-01-10T09:41:45;4.80;99.90
8178;DHT22;4130;48.740;9.132;2023-01-10T09:44:18;4.80;99.90
8178;DHT22;4130;48.740;9.132;2023-01-10T09:46:52;5.00;99.90
8178;DHT22;4130;48.740;9.132;2023-01-10T09:49:28;5.00;99.90
8178;DHT22;4130;48.740;9.132;2023-01-10T09:52:01;5.10;99.90
8178;DHT22;4130;48.740;9.132;2023-01-10T09:54:36;5.20;99.90
8178;DHT22;4130;48.740;9.132;2023-01-10T09:57:05;5.20;99.90
8178;DHT22;4130;48.740;9.132;2023-01-10T09:59:37;6.10;99.90
8178;DHT22;4130;48.740;9.132;2023-01-10T10:02:16;5.30;99.90
8178;DHT22;4130;48.740;9.132;2023-01-10T10:05:01;5.30;99.90
8178;DHT22;4130;48.740;9.132;2023-01-10T10:07:30;5.40;99.90
8178;DHT22;4130;48.740;9.132;2023-01-10T10:09:57;5.50;99.90
8178;DHT22;4130;48.740;9.132;2023-01-10T10:12:30;5.50;99.90
8178;DHT22;4130;48.740;9.132;2023-01-10T10:15:08;5.50;99.90
8178;DHT22;4130;48.740;9.132;2023-01-10T10:17:42;5.50;99.90
8178;DHT22;4130;48.740;9.132;2023-01-10T10:20:30;5.50;99.90
8178;DHT22;4130;48.740;9.132;2023-01-10T10:23:11;5.50;99.90
8178;DHT22;4130;48.740;9.132;2023-01-10T10:25:49;5.60;99.90
8178;DHT22;4130;48.740;9.132;2023-01-10T10:28:53;5.60;99.90
8178;DHT22;4130;48.740;9.132;2023-01-10T10:31:41;5.60;99.90
8178;DHT22;4130;48.740;9.132;2023-01-10T10:34:15;5.70;99.90
8178;DHT22;4130;48.740;9.132;2023-01-10T10:36:49;5.70;99.90
8178;DHT22;4130;48.740;9.132;2023-01-10T10:39:21;5.80;99.90
8178;DHT22;4130;48.740;9.132;2023-01-10T10:41:51;5.90;99.90
8178;DHT22;4130;48.740;9.132;2023-01-10T10:44:29;5.80;99.90
8178;DHT22;4130;48.740;9.132;2023-01-10T10:46:58;5.80;99.90
8178;DHT22;4130;48.740;9.132;2023-01-10T10:49:36;5.90;99.90
8178;DHT22;4130;48.740;9.132;2023-01-10T10:52:11;5.90;99.90
8178;DHT22;4130;48.740;9.132;2023-01-10T10:54:40;6.00;99.90
8178;DHT22;4130;48.740;9.132;2023-01-10T10:57:08;6.10;99.90
8178;DHT22;4130;48.740;9.132;2023-01-10T10:59:37;6.10;99.90
8178;DHT22;4130;48.740;9.132;2023-01-10T11:02:15;6.10;99.90
8178;DHT22;4130;48.740;9.132;2023-01-10T11:04:45;6.00;99.90
8178;DHT22;4130;48.740;9.132;2023-01-10T11:07:15;5.90;99.90
8178;DHT22;4130;48.740;9.132;2023-01-10T11:09:43;5.90;99.90
8178;DHT22;4130;48.740;9.132;2023-01-10T11:12:12;5.80;99.90
8178;DHT22;4130;48.740;9.132;2023-01-10T11:14:42;5.90;99.90
8178;DHT22;4130;48.740;9.132;2023-01-10T11:17:21;6.00;99.90
8178;DHT22;4130;48.740;9.132;2023-01-10T11:19:56;6.00;99.90
8178;DHT22;4130;48.740;9.132;2023-01-10T11:22:26;5.90;99.90
8178;DHT22;4130;48.740;9.132;2023-01-10T11:24:55;5.80;99.90
8178;DHT22;4130;48.740;9.132;2023-01-10T11:27:25;5.60;99.90
8178;DHT22;4130;48.740;9.132;2023-01-10T11:29:56;5.60;99.90
8178;DHT22;4130;48.740;9.132;2023-01-10T11:32:30;5.70;99.90
8178;DHT22;4130;48.740;9.132;2023-01-10T11:34:59;5.80;99.90
8178;DHT22;4130;48.740;9.132;2023-01-10T11:37:29;5.90;99.90
8178;DHT22;4130;48.740;9.132;2023-01-10T11:40:20;5.90;99.90
8178;DHT22;4130;48.740;9.132;2023-01-10T11:42:51;5.90;99.90
8178;DHT22;4130;48.740;9.132;2023-01-10T11:45:25;7.00;99.90
8178;DHT22;4130;48.740;9.132;2023-01-10T11:47:55;5.80;99.90
8178;DHT22;4130;48.740;9.132;2023-01-10T11:50:24;6.50;99.90
8178;DHT22;4130;48.740;9.132;2023-01-10T11:52:53;5.70;99.90
8178;DHT22;4130;48.740;9.132;2023-01-10T11:55:22;6.50;99.90
8178;DHT22;4130;48.740;9.132;2023-01-10T11:57:59;5.80;99.90
8178;DHT22;4130;48.740;9.132;2023-01-10T12:00:36;5.90;99.90
8178;DHT22;4130;48.740;9.132;2023-01-10T12:03:16;6.00;99.90
8178;DHT22;4130;48.740;9.132;2023-01-10T12:05:54;6.10;99.90
8178;DHT22;4130;48.740;9.132;2023-01-10T12:08:33;6.40;99.90
8178;DHT22;4130;48.740;9.132;2023-01-10T12:11:03;6.50;99.90
8178;DHT22;4130;48.740;9.132;2023-01-10T12:13:42;6.50;99.90
8178;DHT22;4130;48.740;9.132;2023-01-10T12:16:20;6.50;99.90
8178;DHT22;4130;48.740;9.132;2023-01-10T12:18:48;6.50;99.90
8178;DHT22;4130;48.740;9.132;2023-01-10T12:21:20;6.50;99.90
8178;DHT22;4130;48.740;9.132;2023-01-10T12:23:50;6.40;99.90
8178;DHT22;4130;48.740;9.132;2023-01-10T12:26:18;6.30;99.90
8178;DHT22;4130;48.740;9.132;2023-01-10T12:28:49;6.40;99.90
8178;DHT22;4130;48.740;9.132;2023-01-10T12:31:20;6.30;99.90
8178;DHT22;4130;48.740;9.132;2023-01-10T12:33:52;6.40;99.90
8178;DHT22;4130;48.740;9.132;2023-01-10T12:36:33;6.50;99.90
8178;DHT22;4130;48.740;9.132;2023-01-10T12:39:10;6.70;99.90
8178;DHT22;4130;48.740;9.132;2023-01-10T12:41:55;6.70;99.90
8178;DHT22;4130;48.740;9.132;2023-01-10T12:44:42;6.80;99.90
8178;DHT22;4130;48.740;9.132;2023-01-10T12:47:18;6.80;99.90
8178;DHT22;4130;48.740;9.132;2023-01-10T12:49:51;6.80;99.90
8178;DHT22;4130;48.740;9.132;2023-01-10T12:52:28;6.80;99.90
8178;DHT22;4130;48.740;9.132;2023-01-10T12:54:57;6.80;99.90
8178;DHT22;4130;48.740;9.132;2023-01-10T12:57:28;6.90;99.90
8178;DHT22;4130;48.740;9.132;2023-01-10T12:59:59;6.90;99.90
8178;DHT22;4130;48.740;9.132;2023-01-10T13:02:32;7.00;99.90
8178;DHT22;4130;48.740;9.132;2023-01-10T13:05:02;7.00;99.90
8178;DHT22;4130;48.740;9.132;2023-01-10T13:07:32;6.90;99.90
8178;DHT22;4130;48.740;9.132;2023-01-10T13:10:03;6.90;99.90
8178;DHT22;4130;48.740;9.132;2023-01-10T13:12:34;6.90;99.90
8178;DHT22;4130;48.740;9.132;2023-01-10T13:15:05;6.70;99.90
8178;DHT22;4130;48.740;9.132;2023-01-10T13:17:38;6.70;99.90
8178;DHT22;4130;48.740;9.132;2023-01-10T13:20:28;6.60;99.90
8178;DHT22;4130;48.740;9.132;2023-01-10T13:22:58;6.50;99.90
8178;DHT22;4130;48.740;9.132;2023-01-10T13:25:29;6.50;99.90
8178;DHT22;4130;48.740;9.132;2023-01-10T13:27:57;7.20;99.90
8178;DHT22;4130;48.740;9.132;2023-01-10T13:30:30;6.50;99.90
8178;DHT22;4130;48.740;9.132;2023-01-10T13:33:01;6.50;99.90
8178;DHT22;4130;48.740;9.132;2023-01-10T13:35:36;6.90;99.90
8178;DHT22;4130;48.740;9.132;2023-01-10T13:38:04;6.50;99.90
8178;DHT22;4130;48.740;9.132;2023-01-10T13:40:33;6.60;99.90
8178;DHT22;4130;48.740;9.132;2023-01-10T13:46:36;6.30;99.90
8178;DHT22;4130;48.740;9.132;2023-01-10T13:49:42;6.50;99.90
8178;DHT22;4130;48.740;9.132;2023-01-10T13:52:39;6.70;99.90
8178;DHT22;4130;48.740;9.132;2023-01-10T13:55:31;7.10;99.90
8178;DHT22;4130;48.740;9.132;2023-01-10T13:58:03;7.00;99.90
8178;DHT22;4130;48.740;9.132;2023-01-10T14:00:46;7.40;99.90
8178;DHT22;4130;48.740;9.132;2023-01-10T14:03:43;7.00;99.90
8178;DHT22;4130;48.740;9.132;2023-01-10T14:06:29;7.00;99.90
8178;DHT22;4130;48.740;9.132;2023-01-10T14:08:59;7.00;99.90
8178;DHT22;4130;48.740;9.132;2023-01-10T14:11:28;6.90;99.90
8178;DHT22;4130;48.740;9.132;2023-01-10T14:13:59;7.00;99.90
8178;DHT22;4130;48.740;9.132;2023-01-10T14:16:33;6.90;99.90
8178;DHT22;4130;48.740;9.132;2023-01-10T14:19:02;7.00;99.90
8178;DHT22;4130;48.740;9.132;2023-01-10T14:21:33;8.10;99.90
8178;DHT22;4130;48.740;9.132;2023-01-10T14:24:03;6.70;99.90
8178;DHT22;4130;48.740;9.132;2023-01-10T14:26:31;6.50;99.90
8178;DHT22;4130;48.740;9.132;2023-01-10T14:29:06;6.40;99.90
8178;DHT22;4130;48.740;9.132;2023-01-10T14:31:41;6.40;99.90
8178;DHT22;4130;48.740;9.132;2023-01-10T14:34:09;6.10;99.90
8178;DHT22;4130;48.740;9.132;2023-01-10T14:36:44;5.90;99.90
8178;DHT22;4130;48.740;9.132;2023-01-10T14:39:14;5.80;99.90
8178;DHT22;4130;48.740;9.132;2023-01-10T14:41:43;5.70;99.90
8178;DHT22;4130;48.740;9.132;2023-01-10T14:44:16;5.60;99.90
8178;DHT22;4130;48.740;9.132;2023-01-10T14:46:46;5.50;99.90
8178;DHT22;4130;48.740;9.132;2023-01-10T14:49:22;5.50;99.90
8178;DHT22;4130;48.740;9.132;2023-01-10T14:51:49;5.40;99.90
8178;DHT22;4130;48.740;9.132;2023-01-10T14:54:18;5.30;99.90
8178;DHT22;4130;48.740;9.132;2023-01-10T14:56:46;6.10;99.90
8178;DHT22;4130;48.740;9.132;2023-01-10T14:59:25;5.20;99.90
8178;DHT22;4130;48.740;9.132;2023-01-10T15:01:55;5.10;99.90
8178;DHT22;4130;48.740;9.132;2023-01-10T15:04:26;5.10;99.90
8178;DHT22;4130;48.740;9.132;2023-01-10T15:06:54;5.10;99.90
8178;DHT22;4130;48.740;9.132;2023-01-10T15:09:22;5.00;99.90
8178;DHT22;4130;48.740;9.132;2023-01-10T15:11:49;5.10;99.90
8178;DHT22;4130;48.740;9.132;2023-01-10T15:14:18;5.00;99.90
8178;DHT22;4130;48.740;9.132;2023-01-10T15:16:50;5.00;99.90
8178;DHT22;4130;48.740;9.132;2023-01-10T15:19:20;5.00;99.90
8178;DHT22;4130;48.740;9.132;2023-01-10T15:21:48;5.00;99.90
8178;DHT22;4130;48.740;9.132;2023-01-10T15:24:32;4.90;99.90
8178;DHT22;4130;48.740;9.132;2023-01-10T15:27:02;4.90;99.90
8178;DHT22;4130;48.740;9.132;2023-01-10T15:29:30;4.80;99.90
8178;DHT22;4130;48.740;9.132;2023-01-10T15:32:07;4.80;99.90
8178;DHT22;4130;48.740;9.132;2023-01-10T15:34:36;4.70;99.90
8178;DHT22;4130;48.740;9.132;2023-01-10T15:37:05;4.70;99.90
8178;DHT22;4130;48.740;9.132;2023-01-10T15:39:35;4.60;99.90
8178;DHT22;4130;48.740;9.132;2023-01-10T15:42:05;4.60;99.90
8178;DHT22;4130;48.740;9.132;2023-01-10T15:44:38;4.90;99.90
8178;DHT22;4130;48.740;9.132;2023-01-10T15:47:34;4.40;99.90
8178;DHT22;4130;48.740;9.132;2023-01-10T15:50:15;4.40;99.90
8178;DHT22;4130;48.740;9.132;2023-01-10T15:52:46;4.40;99.90
8178;DHT22;4130;48.740;9.132;2023-01-10T15:58:22;4.30;99.90
8178;DHT22;4130;48.740;9.132;2023-01-10T16:00:53;4.30;99.90
8178;DHT22;4130;48.740;9.132;2023-01-10T16:03:25;4.20;99.90
8178;DHT22;4130;48.740;9.132;2023-01-10T16:05:56;4.20;99.90
8178;DHT22;4130;48.740;9.132;2023-01-10T16:08:25;4.10;99.90
8178;DHT22;4130;48.740;9.132;2023-01-10T16:10:54;4.00;99.90
8178;DHT22;4130;48.740;9.132;2023-01-10T16:13:22;3.90;99.90
8178;DHT22;4130;48.740;9.132;2023-01-10T16:15:52;3.80;99.90
8178;DHT22;4130;48.740;9.132;2023-01-10T16:18:19;3.70;99.90
8178;DHT22;4130;48.740;9.132;2023-01-10T16:20:48;3.60;99.90
8178;DHT22;4130;48.740;9.132;2023-01-10T16:23:17;3.60;99.90
8178;DHT22;4130;48.740;9.132;2023-01-10T16:25:46;3.50;99.90
8178;DHT22;4130;48.740;9.132;2023-01-10T16:28:15;3.50;99.90
8178;DHT22;4130;48.740;9.132;2023-01-10T16:30:42;3.50;99.90
8178;DHT22;4130;48.740;9.132;2023-01-10T16:33:12;3.40;99.90
8178;DHT22;4130;48.740;9.132;2023-01-10T16:35:41;3.40;99.90
8178;DHT22;4130;48.740;9.132;2023-01-10T16:38:10;3.40;99.90
8178;DHT22;4130;48.740;9.132;2023-01-10T16:40:40;3.40;99.90
8178;DHT22;4130;48.740;9.132;2023-01-10T16:43:08;3.40;99.90
8178;DHT22;4130;48.740;9.132;2023-01-10T16:45:43;3.50;99.90
8178;DHT22;4130;48.740;9.132;2023-01-10T16:48:10;4.10;99.90
8178;DHT22;4130;48.740;9.132;2023-01-10T16:50:37;3.50;99.90
8178;DHT22;4130;48.740;9.132;2023-01-10T16:53:04;3.50;99.90